sensor_id;sensor_type;location;lat;lon;timestamp;temperature;humidity
6484;DHT22;3275;52.376;9.694;2024-02-26T08:34:16;5.90;99.90
6484;DHT22;3275;52.376;9.694;2024-02-26T08:36:43;6.00;99.90
6484;DHT22;3275;52.376;9.694;2024-02-26T08:39:10;5.90;99.90
6484;DHT22;3275;52.376;9.694;2024-02-26T08:41:39;5.90;99.90
6484;DHT22;3275;52.376;9.694;2024-02-26T08:44:05;5.90;99.90
6484;DHT22;3275;52.376;9.694;2024-02-26T08:46:32;5.90;99.90
6484;DHT22;3275;52.376;9.694;2024-02-26T08:48:58;6.00;99.90
6484;DHT22;3275;52.376;9.694;2024-02-26T08:51:26;6.00;99.90
6484;DHT22;3275;52.376;9.694;2024-02-26T08:53:53;6.00;99.90
6484;DHT22;3275;52.376;9.694;2024-02-26T08:56:20;6.10;99.90
6484;DHT22;3275;52.376;9.694;2024-02-26T08:58:47;6.10;99.90
6484;DHT22;3275;52.376;9.694;2024-02-26T09:01:16;6.20;99.90
6484;DHT22;3275;52.376;9.694;2024-02-26T09:03:42;6.20;99.90
6484;DHT22;3275;52.376;9.694;2024-02-26T09:06:09;6.30;99.90
6484;DHT22;3275;52.376;9.694;2024-02-26T09:08:38;6.30;99.90
6484;DHT22;3275;52.376;9.694;2024-02-26T09:11:05;6.30;99.90
6484;DHT22;3275;52.376;9.694;2024-02-26T09:13:32;6.40;99.90
6484;DHT22;3275;52.376;9.694;2024-02-26T09:15:59;6.40;99.90
6484;DHT22;3275;52.376;9.694;2024-02-26T09:18:26;6.40;99.90
6484;DHT22;3275;52.376;9.694;2024-02-26T09:20:54;6.40;99.90
6484;DHT22;3275;52.376;9.694;2024-02-26T09:23:20;6.50;99.90
6484;DHT22;3275;52.376;9.694;2024-02-26T09:25:48;6.50;99.90
6484;DHT22;3275;52.376;9.694;2024-02-26T09:28:15;6.60;99.90
6484;DHT22;3275;52.376;9.694;2024-02-26T09:30:42;6.60;99.90
6484;DHT22;3275;52.376;9.694;2024-02-26T09:33:09;6.60;99.90
6484;DHT22;3275;52.376;9.694;2024-02-26T09:35:37;6.80;99.90
6484;DHT22;3275;52.376;9.694;2024-02-26T09:38:04;6.60;99.90
6484;DHT22;3275;52.376;9.694;2024-02-26T09:40:30;6.70;99.90
6484;DHT22;3275;52.376;9.694;2024-02-26T09:43:00;6.80;99.90
6484;DHT22;3275;52.376;9.694;2024-02-26T09:45:28;6.80;99.90
6484;DHT22;3275;52.376;9.694;2024-02-26T09:47:55;6.90;99.90
6484;DHT22;3275;52.376;9.694;2024-02-26T09:50:22;6.90;99.90
6484;DHT22;3275;52.376;9.694;2024-02-26T09:52:49;6.90;99.90
6484;DHT22;3275;52.376;9.694;2024-02-26T09:55:17;7.00;99.90
6484;DHT22;3275;52.376;9.694;2024-02-26T09:57:45;7.00;99.90
6484;DHT22;3275;52.376;9.694;2024-02-26T10:00:17;7.00;99.90
6484;DHT22;3275;52.376;9.694;2024-02-26T10:02:47;7.00;99.90
6484;DHT22;3275;52.376;9.694;2024-02-26T10:05:16;7.00;99.90
6484;DHT22;3275;52.376;9.694;2024-02-26T10:07:44;7.10;99.90
6484;DHT22;3275;52.376;9.694;2024-02-26T10:10:11;7.10;99.90
6484;DHT22;3275;52.376;9.694;2024-02-26T10:12:37;7.10;99.90
6484;DHT22;3275;52.376;9.694;2024-02-26T10:15:05;7.20;99.90
6484;DHT22;3275;52.376;9.694;2024-02-26T10:17:33;7.30;99.90
6484;DHT22;3275;52.376;9.694;2024-02-26T10:20:13;7.30;99.90
6484;DHT22;3275;52.376;9.694;2024-02-26T10:22:42;7.30;99.90
6484;DHT22;3275;52.376;9.694;2024-02-26T10:25:09;7.30;99.90
6484;DHT22;3275;52.376;9.694;2024-02-26T10:27:35;7.40;99.90
6484;DHT22;3275;52.376;9.694;2024-02-26T10:30:03;7.40;99.90
6484;DHT22;3275;52.376;9.694;2024-02-26T10:32:30;7.40;99.90
6484;DHT22;3275;52.376;9.694;2024-02-26T10:34:58;7.40;99.90
6484;DHT22;3275;52.376;9.694;2024-02-26T10:37:24;7.40;99.90
6484;DHT22;3275;52.376;9.694;2024-02-26T10:39:51;7.40;99.90
6484;DHT22;3275;52.376;9.694;2024-02-26T10:42:18;7.40;99.90
6484;DHT22;3275;52.376;9.694;2024-02-26T10:44:45;7.50;99.90
6484;DHT22;3275;52.376;9.694;2024-02-26T10:47:14;7.50;99.90
6484;DHT22;3275;52.376;9.694;2024-02-26T10:49:45;7.50;99.90
6484;DHT22;3275;52.376;9.694;2024-02-26T10:52:14;7.50;99.90
6484;DHT22;3275;52.376;9.694;2024-02-26T10:54:41;7.50;99.90
6484;DHT22;3275;52.376;9.694;2024-02-26T10:57:10;7.50;99.90
6484;DHT22;3275;52.376;9.694;2024-02-26T10:59:38;7.50;99.90
6484;DHT22;3275;52.376;9.694;2024-02-26T11:02:07;7.50;99.90
6484;DHT22;3275;52.376;9.694;2024-02-26T11:04:35;7.50;99.90
6484;DHT22;3275;52.376;9.694;2024-02-26T11:07:03;7.60;99.90
6484;DHT22;3275;52.376;9.694;2024-02-26T11:09:32;7.60;99.90
6484;DHT22;3275;52.376;9.694;2024-02-26T11:12:00;7.60;99.90
6484;DHT22;3275;52.376;9.694;2024-02-26T11:14:29;7.60;99.90
6484;DHT22;3275;52.376;9.694;2024-02-26T11:16:56;7.60;99.90
6484;DHT22;3275;52.376;9.694;2024-02-26T11:19:24;7.70;99.90
6484;DHT22;3275;52.376;9.694;2024-02-26T11:21:51;7.70;99.90
6484;DHT22;3275;52.376;9.694;2024-02-26T11:24:18;7.70;99.90
6484;DHT22;3275;52.376;9.694;2024-02-26T11:26:51;7.70;99.90
6484;DHT22;3275;52.376;9.694;2024-02-26T11:29:27;7.80;99.90
6484;DHT22;3275;52.376;9.694;2024-02-26T11:31:54;7.80;99.90
6484;DHT22;3275;52.376;9.694;2024-02-26T11:34:21;7.90;99.90
6484;DHT22;3275;52.376;9.694;2024-02-26T11:36:49;7.90;99.90
6484;DHT22;3275;52.376;9.694;2024-02-26T11:39:15;8.00;99.90
6484;DHT22;3275;52.376;9.694;2024-02-26T11:41:42;8.10;99.90
6484;DHT22;3275;52.376;9.694;2024-02-26T11:44:10;8.10;99.90
6484;DHT22;3275;52.376;9.694;2024-02-26T11:46:40;8.20;99.90
6484;DHT22;3275;52.376;9.694;2024-02-26T11:49:31;8.30;99.90
6484;DHT22;3275;52.376;9.694;2024-02-26T11:51:59;8.10;99.90
6484;DHT22;3275;52.376;9.694;2024-02-26T11:54:54;8.10;99.90
6484;DHT22;3275;52.376;9.694;2024-02-26T11:57:26;8.10;99.90
6484;DHT22;3275;52.376;9.694;2024-02-26T11:59:56;8.20;99.90
6484;DHT22;3275;52.376;9.694;2024-02-26T12:02:40;8.30;99.90
6484;DHT22;3275;52.376;9.694;2024-02-26T12:05:10;8.40;99.90
6484;DHT22;3275;52.376;9.694;2024-02-26T12:07:40;8.40;99.90
6484;DHT22;3275;52.376;9.694;2024-02-26T12:10:22;8.50;99.90
6484;DHT22;3275;52.376;9.694;2024-02-26T12:12:53;8.50;99.90
6484;DHT22;3275;52.376;9.694;2024-02-26T12:15:24;8.60;99.90
6484;DHT22;3275;52.376;9.694;2024-02-26T12:17:51;8.60;99.90
6484;DHT22;3275;52.376;9.694;2024-02-26T12:20:18;8.70;99.90
6484;DHT22;3275;52.376;9.694;2024-02-26T12:22:46;8.70;99.90
6484;DHT22;3275;52.376;9.694;2024-02-26T12:25:13;8.70;99.90
6484;DHT22;3275;52.376;9.694;2024-02-26T12:27:40;8.60;99.90
6484;DHT22;3275;52.376;9.694;2024-02-26T12:30:08;8.70;99.90
6484;DHT22;3275;52.376;9.694;2024-02-26T12:32:36;8.60;99.90
6484;DHT22;3275;52.376;9.694;2024-02-26T12:35:04;8.60;99.90
6484;DHT22;3275;52.376;9.694;2024-02-26T12:37:32;8.60;99.90
6484;DHT22;3275;52.376;9.694;2024-02-26T12:39:59;8.80;99.90
6484;DHT22;3275;52.376;9.694;2024-02-26T12:42:25;8.80;99.90
6484;DHT22;3275;52.376;9.694;2024-02-26T12:44:52;8.80;99.90
6484;DHT22;3275;52.376;9.694;2024-02-26T12:47:19;8.90;99.90
6484;DHT22;3275;52.376;9.694;2024-02-26T12:49:48;8.80;99.90
6484;DHT22;3275;52.376;9.694;2024-02-26T12:52:16;9.00;99.90
6484;DHT22;3275;52.376;9.694;2024-02-26T12:54:44;9.10;99.90
6484;DHT22;3275;52.376;9.694;2024-02-26T12:57:11;9.10;99.90
6484;DHT22;3275;52.376;9.694;2024-02-26T12:59:39;9.10;99.90
6484;DHT22;3275;52.376;9.694;2024-02-26T13:02:06;9.20;99.90
6484;DHT22;3275;52.376;9.694;2024-02-26T13:04:34;9.20;99.90
6484;DHT22;3275;52.376;9.694;2024-02-26T13:07:04;9.30;99.90
6484;DHT22;3275;52.376;9.694;2024-02-26T13:09:33;9.40;99.90
6484;DHT22;3275;52.376;9.694;2024-02-26T13:12:00;9.30;99.90
6484;DHT22;3275;52.376;9.694;2024-02-26T13:14:26;9.20;99.90
6484;DHT22;3275;52.376;9.694;2024-02-26T13:16:56;9.20;99.90
6484;DHT22;3275;52.376;9.694;2024-02-26T13:19:23;9.20;99.90
6484;DHT22;3275;52.376;9.694;2024-02-26T13:21:50;9.10;99.90
6484;DHT22;3275;52.376;9.694;2024-02-26T13:24:20;9.00;99.90
6484;DHT22;3275;52.376;9.694;2024-02-26T13:26:47;9.00;99.90
6484;DHT22;3275;52.376;9.694;2024-02-26T13:29:20;9.00;99.90
6484;DHT22;3275;52.376;9.694;2024-02-26T13:31:47;9.00;99.90
6484;DHT22;3275;52.376;9.694;2024-02-26T13:34:23;8.90;99.90
6484;DHT22;3275;52.376;9.694;2024-02-26T13:36:50;8.80;99.90
6484;DHT22;3275;52.376;9.694;2024-02-26T13:39:23;8.90;99.90
6484;DHT22;3275;52.376;9.694;2024-02-26T13:41:50;8.90;99.90
6484;DHT22;3275;52.376;9.694;2024-02-26T13:44:17;8.80;99.90
6484;DHT22;3275;52.376;9.694;2024-02-26T13:46:43;8.80;99.90
6484;DHT22;3275;52.376;9.694;2024-02-26T13:49:10;8.80;99.90
6484;DHT22;3275;52.376;9.694;2024-02-26T13:51:37;8.80;99.90
6484;DHT22;3275;52.376;9.694;2024-02-26T13:54:03;8.80;99.90
6484;DHT22;3275;52.376;9.694;2024-02-26T13:56:31;8.80;99.90
6484;DHT22;3275;52.376;9.694;2024-02-26T13:58:58;8.80;99.90
6484;DHT22;3275;52.376;9.694;2024-02-26T14:01:25;8.90;99.90
6484;DHT22;3275;52.376;9.694;2024-02-26T14:03:52;8.90;99.90
6484;DHT22;3275;52.376;9.694;2024-02-26T14:06:20;8.90;99.90
6484;DHT22;3275;52.376;9.694;2024-02-26T14:08:48;8.90;99.90
6484;DHT22;3275;52.376;9.694;2024-02-26T14:11:14;8.90;99.90
6484;DHT22;3275;52.376;9.694;2024-02-26T14:13:42;8.90;99.90
6484;DHT22;3275;52.376;9.694;2024-02-26T14:16:10;8.90;99.90
6484;DHT22;3275;52.376;9.694;2024-02-26T14:18:37;9.00;99.90
6484;DHT22;3275;52.376;9.694;2024-02-26T14:21:04;8.90;99.90
6484;DHT22;3275;52.376;9.694;2024-02-26T14:23:31;8.90;99.90
6484;DHT22;3275;52.376;9.694;2024-02-26T14:25:57;8.90;99.90
6484;DHT22;3275;52.376;9.694;2024-02-26T14:28:25;8.90;99.90
6484;DHT22;3275;52.376;9.694;2024-02-26T14:30:54;8.90;99.90
6484;DHT22;3275;52.376;9.694;2024-02-26T14:33:21;8.80;99.90
6484;DHT22;3275;52.376;9.694;2024-02-26T14:35:47;8.80;99.90
6484;DHT22;3275;52.376;9.694;2024-02-26T14:38:14;8.80;99.90
6484;DHT22;3275;52.376;9.694;2024-02-26T14:40:41;8.90;99.90
6484;DHT22;3275;52.376;9.694;2024-02-26T14:43:08;8.80;99.90
6484;DHT22;3275;52.376;9.694;2024-02-26T14:45:35;8.80;99.90
6484;DHT22;3275;52.376;9.694;2024-02-26T14:48:05;8.90;99.90
6484;DHT22;3275;52.376;9.694;2024-02-26T14:50:33;8.80;99.90
6484;DHT22;3275;52.376;9.694;2024-02-26T14:52:59;8.80;99.90
6484;DHT22;3275;52.376;9.694;2024-02-26T14:55:27;8.80;99.90
6484;DHT22;3275;52.376;9.694;2024-02-26T14:57:54;8.80;99.90
6484;DHT22;3275;52.376;9.694;2024-02-26T15:00:21;8.80;99.90
6484;DHT22;3275;52.376;9.694;2024-02-26T15:02:47;8.80;99.90
6484;DHT22;3275;52.376;9.694;2024-02-26T15:05:15;8.80;99.90
6484;DHT22;3275;52.376;9.694;2024-02-26T15:07:44;8.70;99.90
6484;DHT22;3275;52.376;9.694;2024-02-26T15:10:11;8.70;99.90
6484;DHT22;3275;52.376;9.694;2024-02-26T15:12:38;8.70;99.90
6484;DHT22;3275;52.376;9.694;2024-02-26T15:15:06;8.70;99.90
6484;DHT22;3275;52.376;9.694;2024-02-26T15:17:32;8.70;99.90
6484;DHT22;3275;52.376;9.694;2024-02-26T15:20:00;8.80;99.90
6484;DHT22;3275;52.376;9.694;2024-02-26T15:22:28;8.80;99.90
6484;DHT22;3275;52.376;9.694;2024-02-26T15:24:55;8.80;99.90
6484;DHT22;3275;52.376;9.694;2024-02-26T15:27:21;8.80;99.90
6484;DHT22;3275;52.376;9.694;2024-02-26T15:29:48;8.80;99.90
6484;DHT22;3275;52.376;9.694;2024-02-26T15:32:21;8.80;99.90
6484;DHT22;3275;52.376;9.694;2024-02-26T15:34:49;8.80;99.90
6484;DHT22;3275;52.376;9.694;2024-02-26T15:37:17;8.80;99.90
6484;DHT22;3275;52.376;9.694;2024-02-26T15:39:46;8.70;99.90
6484;DHT22;3275;52.376;9.694;2024-02-26T15:42:12;8.70;99.90
6484;DHT22;3275;52.376;9.694;2024-02-26T15:44:39;8.70;99.90
6484;DHT22;3275;52.376;9.694;2024-02-26T15:47:06;8.80;99.90
6484;DHT22;3275;52.376;9.694;2024-02-26T15:49:32;8.80;99.90
6484;DHT22;3275;52.376;9.694;2024-02-26T15:51:59;8.70;99.90
6484;DHT22;3275;52.376;9.694;2024-02-26T15:54:26;8.70;99.90
6484;DHT22;3275;52.376;9.694;2024-02-26T15:56:54;8.70;99.90
6484;DHT22;3275;52.376;9.694;2024-02-26T15:59:20;8.70;99.90
6484;DHT22;3275;52.376;9.694;2024-02-26T16:01:48;8.70;99.90
6484;DHT22;3275;52.376;9.694;2024-02-26T16:04:14;8.80;99.90
6484;DHT22;3275;52.376;9.694;2024-02-26T16:06:43;8.80;99.90
6484;DHT22;3275;52.376;9.694;2024-02-26T16:09:10;8.80;99.90
6484;DHT22;3275;52.376;9.694;2024-02-26T16:11:37;8.80;99.90
6484;DHT22;3275;52.376;9.694;2024-02-26T16:14:11;8.80;99.90
6484;DHT22;3275;52.376;9.694;2024-02-26T16:16:43;8.80;99.90
6484;DHT22;3275;52.376;9.694;2024-02-26T16:19:13;8.70;99.90
6484;DHT22;3275;52.376;9.694;2024-02-26T16:21:42;8.70;99.90
6484;DHT22;3275;52.376;9.694;2024-02-26T16:24:08;8.80;99.90
6484;DHT22;3275;52.376;9.694;2024-02-26T16:26:36;8.70;99.90
6484;DHT22;3275;52.376;9.694;2024-02-26T16:29:04;8.60;99.90
6484;DHT22;3275;52.376;9.694;2024-02-26T16:31:31;8.70;99.90
6484;DHT22;3275;52.376;9.694;2024-02-26T16:33:57;8.60;99.90
6484;DHT22;3275;52.376;9.694;2024-02-26T16:36:24;8.70;99.90
6484;DHT22;3275;52.376;9.694;2024-02-26T16:38:50;8.60;99.90
6484;DHT22;3275;52.376;9.694;2024-02-26T16:41:17;8.60;99.90
6484;DHT22;3275;52.376;9.694;2024-02-26T16:43:44;8.70;99.90
6484;DHT22;3275;52.376;9.694;2024-02-26T16:46:13;8.70;99.90
6484;DHT22;3275;52.376;9.694;2024-02-26T16:48:41;8.70;99.90
6484;DHT22;3275;52.376;9.694;2024-02-26T16:51:08;8.70;99.90
6484;DHT22;3275;52.376;9.694;2024-02-26T16:53:35;8.70;99.90
6484;DHT22;3275;52.376;9.694;2024-02-26T16:56:01;8.60;99.90
6484;DHT22;3275;52.376;9.694;2024-02-26T16:58:29;8.70;99.90
6484;DHT22;3275;52.376;9.694;2024-02-26T17:00:55;8.70;99.90
6484;DHT22;3275;52.376;9.694;2024-02-26T17:03:23;8.60;99.90
6484;DHT22;3275;52.376;9.694;2024-02-26T17:05:50;8.70;99.90
6484;DHT22;3275;52.376;9.694;2024-02-26T17:08:16;8.70;99.90
6484;DHT22;3275;52.376;9.694;2024-02-26T17:10:55;8.60;99.90
6484;DHT22;3275;52.376;9.694;2024-02-26T17:13:25;8.60;99.90
6484;DHT22;3275;52.376;9.694;2024-02-26T17:15:53;8.60;99.90
6484;DHT22;3275;52.376;9.694;2024-02-26T17:18:20;8.60;99.90
6484;DHT22;3275;52.376;9.694;2024-02-26T17:20:48;8.60;99.90
6484;DHT22;3275;52.376;9.694;2024-02-26T17:23:15;8.60;99.90
6484;DHT22;3275;52.376;9.694;2024-02-26T17:25:42;8.60;99.90
6484;DHT22;3275;52.376;9.694;2024-02-26T17:28:09;8.60;99.90
6484;DHT22;3275;52.376;9.694;2024-02-26T17:30:37;8.60;99.90
6484;DHT22;3275;52.376;9.694;2024-02-26T17:33:05;8.60;99.90
6484;DHT22;3275;52.376;9.694;2024-02-26T17:35:31;8.60;99.90
6484;DHT22;3275;52.376;9.694;2024-02-26T17:37:59;8.50;99.90
6484;DHT22;3275;52.376;9.694;2024-02-26T17:40:26;8.50;99.90
6484;DHT22;3275;52.376;9.694;2024-02-26T17:42:53;8.50;99.90
6484;DHT22;3275;52.376;9.694;2024-02-26T17:45:20;8.50;99.90
6484;DHT22;3275;52.376;9.694;2024-02-26T17:47:47;8.50;99.90
6484;DHT22;3275;52.376;9.694;2024-02-26T17:50:15;8.50;99.90
6484;DHT22;3275;52.376;9.694;2024-02-26T17:52:42;8.50;99.90
6484;DHT22;3275;52.376;9.694;2024-02-26T17:55:10;8.50;99.90
6484;DHT22;3275;52.376;9.694;2024-02-26T17:57:38;8.40;99.90
6484;DHT22;3275;52.376;9.694;2024-02-26T18:00:05;8.40;99.90
6484;DHT22;3275;52.376;9.694;2024-02-26T18:02:32;8.30;99.90
6484;DHT22;3275;52.376;9.694;2024-02-26T18:04:59;8.30;99.90
6484;DHT22;3275;52.376;9.694;2024-02-26T18:07:26;8.30;99.90
6484;DHT22;3275;52.376;9.694;2024-02-26T18:09:52;8.30;99.90
6484;DHT22;3275;52.376;9.694;2024-02-26T18:12:20;8.30;99.90
6484;DHT22;3275;52.376;9.694;2024-02-26T18:14:47;8.20;99.90
6484;DHT22;3275;52.376;9.694;2024-02-26T18:17:13;8.30;99.90
6484;DHT22;3275;52.376;9.694;2024-02-26T18:19:41;8.30;99.90
6484;DHT22;3275;52.376;9.694;2024-02-26T18:22:07;8.30;99.90
6484;DHT22;3275;52.376;9.694;2024-02-26T18:24:34;8.30;99.90
6484;DHT22;3275;52.376;9.694;2024-02-26T18:27:01;8.30;99.90
6484;DHT22;3275;52.376;9.694;2024-02-26T18:29:29;8.20;99.90
6484;DHT22;3275;52.376;9.694;2024-02-26T18:31:55;8.20;99.90
6484;DHT22;3275;52.376;9.694;2024-02-26T18:34:22;8.20;99.90
6484;DHT22;3275;52.376;9.694;2024-02-26T18:36:50;8.20;99.90
6484;DHT22;3275;52.376;9.694;2024-02-26T18:39:16;8.20;99.90
6484;DHT22;3275;52.376;9.694;2024-02-26T18:41:43;8.20;99.90
6484;DHT22;3275;52.376;9.694;2024-02-26T18:44:10;8.20;99.90
6484;DHT22;3275;52.376;9.694;2024-02-26T18:46:43;8.20;99.90
6484;DHT22;3275;52.376;9.694;2024-02-26T18:49:10;8.20;99.90
6484;DHT22;3275;52.376;9.694;2024-02-26T18:51:38;8.10;99.90
6484;DHT22;3275;52.376;9.694;2024-02-26T18:54:04;8.10;99.90
6484;DHT22;3275;52.376;9.694;2024-02-26T18:56:31;8.10;99.90
6484;DHT22;3275;52.376;9.694;2024-02-26T18:58:58;8.10;99.90
6484;DHT22;3275;52.376;9.694;2024-02-26T19:01:25;8.00;99.90
6484;DHT22;3275;52.376;9.694;2024-02-26T19:03:53;8.00;99.90
6484;DHT22;3275;52.376;9.694;2024-02-26T19:06:19;8.00;99.90
6484;DHT22;3275;52.376;9.694;2024-02-26T19:08:46;8.00;99.90
6484;DHT22;3275;52.376;9.694;2024-02-26T19:11:12;8.00;99.90
6484;DHT22;3275;52.376;9.694;2024-02-26T19:13:40;8.00;99.90
6484;DHT22;3275;52.376;9.694;2024-02-26T19:16:07;8.20;99.90
6484;DHT22;3275;52.376;9.694;2024-02-26T19:18:34;8.10;99.90
6484;DHT22;3275;52.376;9.694;2024-02-26T19:21:03;8.20;99.90
6484;DHT22;3275;52.376;9.694;2024-02-26T19:23:30;8.20;99.90
6484;DHT22;3275;52.376;9.694;2024-02-26T19:25:58;8.20;99.90
6484;DHT22;3275;52.376;9.694;2024-02-26T19:28:25;8.20;99.90
6484;DHT22;3275;52.376;9.694;2024-02-26T19:30:52;8.10;99.90
6484;DHT22;3275;52.376;9.694;2024-02-26T19:33:18;8.20;99.90
6484;DHT22;3275;52.376;9.694;2024-02-26T19:35:46;8.10;99.90
6484;DHT22;3275;52.376;9.694;2024-02-26T19:38:15;8.10;99.90
6484;DHT22;3275;52.376;9.694;2024-02-26T19:40:43;8.10;99.90
6484;DHT22;3275;52.376;9.694;2024-02-26T19:43:10;8.10;99.90
6484;DHT22;3275;52.376;9.694;2024-02-26T19:45:37;8.20;99.90
6484;DHT22;3275;52.376;9.694;2024-02-26T19:48:04;8.10;99.90
6484;DHT22;3275;52.376;9.694;2024-02-26T19:50:31;8.10;99.90
6484;DHT22;3275;52.376;9.694;2024-02-26T19:52:57;8.00;99.90
6484;DHT22;3275;52.376;9.694;2024-02-26T19:55:26;8.10;99.90
6484;DHT22;3275;52.376;9.694;2024-02-26T19:57:53;8.00;99.90
6484;DHT22;3275;52.376;9.694;2024-02-26T20:00:22;8.10;99.90
6484;DHT22;3275;52.376;9.694;2024-02-26T20:02:48;8.00;99.90
6484;DHT22;3275;52.376;9.694;2024-02-26T20:05:15;8.00;99.90
6484;DHT22;3275;52.376;9.694;2024-02-26T20:07:41;8.00;99.90
6484;DHT22;3275;52.376;9.694;2024-02-26T20:10:08;8.00;99.90
6484;DHT22;3275;52.376;9.694;2024-02-26T20:12:36;8.00;99.90
6484;DHT22;3275;52.376;9.694;2024-02-26T20:15:03;8.00;99.90
6484;DHT22;3275;52.376;9.694;2024-02-26T20:17:31;8.00;99.90
6484;DHT22;3275;52.376;9.694;2024-02-26T20:19:57;8.00;99.90
6484;DHT22;3275;52.376;9.694;2024-02-26T20:22:24;8.00;99.90
6484;DHT22;3275;52.376;9.694;2024-02-26T20:24:51;8.00;99.90
6484;DHT22;3275;52.376;9.694;2024-02-26T20:27:18;8.00;99.90
6484;DHT22;3275;52.376;9.694;2024-02-26T20:29:47;7.90;99.90
6484;DHT22;3275;52.376;9.694;2024-02-26T20:32:15;7.90;99.90
6484;DHT22;3275;52.376;9.694;2024-02-26T20:34:42;8.00;99.90
6484;DHT22;3275;52.376;9.694;2024-02-26T20:37:08;7.90;99.90
6484;DHT22;3275;52.376;9.694;2024-02-26T20:39:35;7.90;99.90
6484;DHT22;3275;52.376;9.694;2024-02-26T20:42:01;7.90;99.90
6484;DHT22;3275;52.376;9.694;2024-02-26T20:44:28;7.80;99.90
6484;DHT22;3275;52.376;9.694;2024-02-26T20:46:56;7.80;99.90
6484;DHT22;3275;52.376;9.694;2024-02-26T20:49:24;7.80;99.90
6484;DHT22;3275;52.376;9.694;2024-02-26T20:51:51;7.80;99.90
6484;DHT22;3275;52.376;9.694;2024-02-26T20:54:17;7.80;99.90
6484;DHT22;3275;52.376;9.694;2024-02-26T20:56:45;7.70;99.90
6484;DHT22;3275;52.376;9.694;2024-02-26T20:59:12;7.70;99.90
6484;DHT22;3275;52.376;9.694;2024-02-26T21:01:39;7.70;99.90
6484;DHT22;3275;52.376;9.694;2024-02-26T21:04:07;7.80;99.90
6484;DHT22;3275;52.376;9.694;2024-02-26T21:06:33;7.80;99.90
6484;DHT22;3275;52.376;9.694;2024-02-26T21:09:00;7.70;99.90
6484;DHT22;3275;52.376;9.694;2024-02-26T21:11:27;7.70;99.90
6484;DHT22;3275;52.376;9.694;2024-02-26T21:13:54;7.70;99.90
6484;DHT22;3275;52.376;9.694;2024-02-26T21:16:20;7.60;99.90
6484;DHT22;3275;52.376;9.694;2024-02-26T21:18:47;7.60;99.90
6484;DHT22;3275;52.376;9.694;2024-02-26T21:21:15;7.50;99.90
6484;DHT22;3275;52.376;9.694;2024-02-26T21:23:44;7.60;99.90
6484;DHT22;3275;52.376;9.694;2024-02-26T21:26:13;7.60;99.90
6484;DHT22;3275;52.376;9.694;2024-02-26T21:28:40;7.50;99.90
6484;DHT22;3275;52.376;9.694;2024-02-26T21:31:07;7.50;99.90
6484;DHT22;3275;52.376;9.694;2024-02-26T21:33:34;7.50;99.90
6484;DHT22;3275;52.376;9.694;2024-02-26T21:36:00;7.50;99.90
6484;DHT22;3275;52.376;9.694;2024-02-26T21:38:28;7.50;99.90
6484;DHT22;3275;52.376;9.694;2024-02-26T21:40:55;7.50;99.90
6484;DHT22;3275;52.376;9.694;2024-02-26T21:43:21;7.50;99.90
6484;DHT22;3275;52.376;9.694;2024-02-26T21:45:48;7.40;99.90
6484;DHT22;3275;52.376;9.694;2024-02-26T21:48:15;7.40;99.90
6484;DHT22;3275;52.376;9.694;2024-02-26T21:50:42;7.40;99.90
6484;DHT22;3275;52.376;9.694;2024-02-26T21:53:08;7.40;99.90
6484;DHT22;3275;52.376;9.694;2024-02-26T21:55:38;7.40;99.90
6484;DHT22;3275;52.376;9.694;2024-02-26T21:58:05;7.30;99.90
6484;DHT22;3275;52.376;9.694;2024-02-26T22:00:32;7.30;99.90
6484;DHT22;3275;52.376;9.694;2024-02-26T22:02:59;7.30;99.90
6484;DHT22;3275;52.376;9.694;2024-02-26T22:05:25;7.30;99.90
6484;DHT22;3275;52.376;9.694;2024-02-26T22:07:52;7.30;99.90
6484;DHT22;3275;52.376;9.694;2024-02-26T22:10:19;7.30;99.90
6484;DHT22;3275;52.376;9.694;2024-02-26T22:12:47;7.30;99.90
6484;DHT22;3275;52.376;9.694;2024-02-26T22:15:13;7.30;99.90
6484;DHT22;3275;52.376;9.694;2024-02-26T22:17:40;7.30;99.90
6484;DHT22;3275;52.376;9.694;2024-02-26T22:20:07;7.30;99.90
6484;DHT22;3275;52.376;9.694;2024-02-26T22:22:35;7.30;99.90
6484;DHT22;3275;52.376;9.694;2024-02-26T22:25:02;7.30;99.90
6484;DHT22;3275;52.376;9.694;2024-02-26T22:27:29;7.20;99.90
6484;DHT22;3275;52.376;9.694;2024-02-26T22:29:57;7.20;99.90
6484;DHT22;3275;52.376;9.694;2024-02-26T22:32:24;7.20;99.90
6484;DHT22;3275;52.376;9.694;2024-02-26T22:34:50;7.20;99.90
6484;DHT22;3275;52.376;9.694;2024-02-26T22:37:17;7.20;99.90
6484;DHT22;3275;52.376;9.694;2024-02-26T22:39:44;7.20;99.90
6484;DHT22;3275;52.376;9.694;2024-02-26T22:42:10;7.20;99.90
6484;DHT22;3275;52.376;9.694;2024-02-26T22:44:37;7.20;99.90
6484;DHT22;3275;52.376;9.694;2024-02-26T22:47:06;7.10;99.90
6484;DHT22;3275;52.376;9.694;2024-02-26T22:49:32;7.20;99.90
6484;DHT22;3275;52.376;9.694;2024-02-26T22:52:02;7.10;99.90
6484;DHT22;3275;52.376;9.694;2024-02-26T22:54:29;7.10;99.90
6484;DHT22;3275;52.376;9.694;2024-02-26T22:56:56;7.00;99.90
6484;DHT22;3275;52.376;9.694;2024-02-26T22:59:23;7.00;99.90
6484;DHT22;3275;52.376;9.694;2024-02-26T23:01:50;7.00;99.90
6484;DHT22;3275;52.376;9.694;2024-02-26T23:04:18;6.90;99.90
6484;DHT22;3275;52.376;9.694;2024-02-26T23:06:44;6.90;99.90
6484;DHT22;3275;52.376;9.694;2024-02-26T23:09:11;7.00;99.90
6484;DHT22;3275;52.376;9.694;2024-02-26T23:11:38;7.00;99.90
6484;DHT22;3275;52.376;9.694;2024-02-26T23:14:05;6.90;99.90
6484;DHT22;3275;52.376;9.694;2024-02-26T23:16:31;6.90;99.90
6484;DHT22;3275;52.376;9.694;2024-02-26T23:18:58;6.90;99.90
6484;DHT22;3275;52.376;9.694;2024-02-26T23:21:26;6.80;99.90
6484;DHT22;3275;52.376;9.694;2024-02-26T23:23:53;6.80;99.90
6484;DHT22;3275;52.376;9.694;2024-02-26T23:26:21;6.80;99.90
6484;DHT22;3275;52.376;9.694;2024-02-26T23:28:49;6.80;99.90
6484;DHT22;3275;52.376;9.694;2024-02-26T23:31:15;6.80;99.90
6484;DHT22;3275;52.376;9.694;2024-02-26T23:33:42;6.90;99.90
6484;DHT22;3275;52.376;9.694;2024-02-26T23:36:09;6.90;99.90
6484;DHT22;3275;52.376;9.694;2024-02-26T23:38:37;6.90;99.90
6484;DHT22;3275;52.376;9.694;2024-02-26T23:41:03;6.80;99.90
6484;DHT22;3275;52.376;9.694;2024-02-26T23:43:30;6.80;99.90
6484;DHT22;3275;52.376;9.694;2024-02-26T23:45:56;6.80;99.90
6484;DHT22;3275;52.376;9.694;2024-02-26T23:48:23;6.70;99.90
6484;DHT22;3275;52.376;9.694;2024-02-26T23:50:50;6.70;99.90
6484;DHT22;3275;52.376;9.694;2024-02-26T23:53:16;6.70;99.90
6484;DHT22;3275;52.376;9.694;2024-02-26T23:55:43;6.70;99.90
6484;DHT22;3275;52.376;9.694;2024-02-26T23:58:10;6.70;99.90
